East Brimfield, Massachusetts
Current Conditions -  °F | °C
As of 2:54 PM on Sunday 23 Nov 2014 (Local Time) from KORH Reporting Station
Scattered Clouds Scattered Clouds  
Wind Chill: 55°   Ceiling: Unl
Heat Index: 55°   Visibility: 10mi
Dew Point: 37°   Wind: 6mph
Humidity: 51%   Direction: 260°W
Pressure: 30.1"   Gusts: NA
Location:  42.1143°N, 72.1854°W
Report Text: KORH 231954Z 26005KT 10SM SCT050 13/03 A3010 RMK AO2 SLP199 T01280028 $
Loading
Personal Weather Stations






























Interactive Weather Map New forecast layout! Learn more

10-Day Weather Forecast

Advertisements
Track Severe Weather on mobile